sensor_id;sensor_type;location;lat;lon;timestamp;pressure;altitude;pressure_sealevel;temperature;humidity
70730;BME280;58315;53.336;55.932;2022-09-02T00:00:45;99000.16;;;22.56;44.55
70730;BME280;58315;53.336;55.932;2022-09-02T00:03:12;99003.91;;;22.43;44.48
70730;BME280;58315;53.336;55.932;2022-09-02T00:05:39;99001.91;;;22.38;44.64
70730;BME280;58315;53.336;55.932;2022-09-02T00:08:05;98999.06;;;22.33;44.73
70730;BME280;58315;53.336;55.932;2022-09-02T00:10:34;98998.31;;;22.26;44.94
70730;BME280;58315;53.336;55.932;2022-09-02T00:13:00;98992.00;;;22.21;45.20
70730;BME280;58315;53.336;55.932;2022-09-02T00:15:26;98992.44;;;22.18;45.36
70730;BME280;58315;53.336;55.932;2022-09-02T00:17:53;98986.72;;;22.14;45.13
70730;BME280;58315;53.336;55.932;2022-09-02T00:20:19;98989.53;;;22.19;45.18
70730;BME280;58315;53.336;55.932;2022-09-02T00:22:46;98989.44;;;22.07;45.60
70730;BME280;58315;53.336;55.932;2022-09-02T00:25:12;98978.31;;;22.04;45.47
70730;BME280;58315;53.336;55.932;2022-09-02T00:27:38;98979.00;;;21.99;45.70
70730;BME280;58315;53.336;55.932;2022-09-02T00:30:05;98980.81;;;22.05;45.31
70730;BME280;58315;53.336;55.932;2022-09-02T00:32:31;98981.63;;;22.06;45.38
70730;BME280;58315;53.336;55.932;2022-09-02T00:34:57;98976.25;;;22.06;45.31
70730;BME280;58315;53.336;55.932;2022-09-02T00:37:25;98973.25;;;22.14;45.65
70730;BME280;58315;53.336;55.932;2022-09-02T00:39:51;98980.63;;;22.19;45.25
70730;BME280;58315;53.336;55.932;2022-09-02T00:42:22;98968.59;;;22.21;45.03
70730;BME280;58315;53.336;55.932;2022-09-02T00:44:49;98956.13;;;22.27;45.07
70730;BME280;58315;53.336;55.932;2022-09-02T00:47:15;98954.00;;;22.29;44.70
70730;BME280;58315;53.336;55.932;2022-09-02T00:49:47;98942.91;;;22.37;44.34
70730;BME280;58315;53.336;55.932;2022-09-02T00:52:29;98942.59;;;22.45;44.08
70730;BME280;58315;53.336;55.932;2022-09-02T00:55:00;98942.09;;;22.48;43.54
70730;BME280;58315;53.336;55.932;2022-09-02T00:57:54;98926.69;;;22.67;43.62
70730;BME280;58315;53.336;55.932;2022-09-02T01:00:24;98924.94;;;22.61;43.19
70730;BME280;58315;53.336;55.932;2022-09-02T01:03:00;98928.91;;;22.70;43.17
70730;BME280;58315;53.336;55.932;2022-09-02T01:05:29;98917.78;;;22.67;42.92
70730;BME280;58315;53.336;55.932;2022-09-02T01:07:57;98915.09;;;22.67;42.56
70730;BME280;58315;53.336;55.932;2022-09-02T01:10:27;98909.84;;;22.72;42.69
70730;BME280;58315;53.336;55.932;2022-09-02T01:13:00;98911.38;;;22.79;42.59
70730;BME280;58315;53.336;55.932;2022-09-02T01:15:34;98909.59;;;22.73;42.70
70730;BME280;58315;53.336;55.932;2022-09-02T01:18:04;98907.38;;;22.70;42.86
70730;BME280;58315;53.336;55.932;2022-09-02T01:20:31;98900.59;;;22.68;42.66
70730;BME280;58315;53.336;55.932;2022-09-02T01:22:57;98896.25;;;22.67;43.11
70730;BME280;58315;53.336;55.932;2022-09-02T01:25:27;98894.03;;;22.63;43.04
70730;BME280;58315;53.336;55.932;2022-09-02T01:28:17;98894.25;;;22.62;43.32
70730;BME280;58315;53.336;55.932;2022-09-02T01:30:48;98880.53;;;22.52;42.90
70730;BME280;58315;53.336;55.932;2022-09-02T01:33:15;98888.41;;;22.53;42.69
70730;BME280;58315;53.336;55.932;2022-09-02T01:35:42;98887.47;;;22.59;42.21
70730;BME280;58315;53.336;55.932;2022-09-02T01:38:09;98884.91;;;22.65;42.05
70730;BME280;58315;53.336;55.932;2022-09-02T01:40:36;98881.84;;;22.73;41.73
70730;BME280;58315;53.336;55.932;2022-09-02T01:43:08;98876.44;;;22.84;41.34
70730;BME280;58315;53.336;55.932;2022-09-02T01:45:36;98874.00;;;22.83;40.35
70730;BME280;58315;53.336;55.932;2022-09-02T01:48:03;98881.28;;;22.94;40.13
70730;BME280;58315;53.336;55.932;2022-09-02T01:50:30;98878.56;;;23.06;40.09
70730;BME280;58315;53.336;55.932;2022-09-02T01:52:58;98870.97;;;23.15;39.61
70730;BME280;58315;53.336;55.932;2022-09-02T01:55:27;98867.78;;;23.18;39.30
70730;BME280;58315;53.336;55.932;2022-09-02T01:57:53;98865.91;;;23.18;39.07
70730;BME280;58315;53.336;55.932;2022-09-02T02:00:19;98872.44;;;23.34;38.89
70730;BME280;58315;53.336;55.932;2022-09-02T02:02:45;98872.31;;;23.41;38.72
70730;BME280;58315;53.336;55.932;2022-09-02T02:05:11;98869.22;;;23.49;38.76
70730;BME280;58315;53.336;55.932;2022-09-02T02:07:41;98871.19;;;23.53;38.58
70730;BME280;58315;53.336;55.932;2022-09-02T02:10:08;98875.03;;;23.57;38.79
70730;BME280;58315;53.336;55.932;2022-09-02T02:12:37;98886.06;;;23.68;38.65
70730;BME280;58315;53.336;55.932;2022-09-02T02:15:07;98863.53;;;23.74;38.37
70730;BME280;58315;53.336;55.932;2022-09-02T02:17:35;98873.84;;;23.77;38.11
70730;BME280;58315;53.336;55.932;2022-09-02T02:20:04;98892.22;;;23.80;38.25
70730;BME280;58315;53.336;55.932;2022-09-02T02:22:31;98882.75;;;23.77;38.42
70730;BME280;58315;53.336;55.932;2022-09-02T02:24:57;98881.44;;;23.80;37.95
70730;BME280;58315;53.336;55.932;2022-09-02T02:27:23;98877.25;;;23.72;37.59
70730;BME280;58315;53.336;55.932;2022-09-02T02:29:49;98885.69;;;23.64;37.65
70730;BME280;58315;53.336;55.932;2022-09-02T02:32:16;98888.75;;;23.68;37.41
70730;BME280;58315;53.336;55.932;2022-09-02T02:34:44;98883.44;;;23.73;37.47
70730;BME280;58315;53.336;55.932;2022-09-02T02:37:12;98894.25;;;23.73;37.00
70730;BME280;58315;53.336;55.932;2022-09-02T02:39:40;98882.50;;;23.79;36.26
70730;BME280;58315;53.336;55.932;2022-09-02T02:42:06;98874.00;;;23.87;35.64
70730;BME280;58315;53.336;55.932;2022-09-02T02:44:33;98873.13;;;23.98;35.50
70730;BME280;58315;53.336;55.932;2022-09-02T02:47:00;98870.94;;;24.12;35.42
70730;BME280;58315;53.336;55.932;2022-09-02T02:49:26;98856.22;;;24.20;34.82
70730;BME280;58315;53.336;55.932;2022-09-02T02:51:53;98861.38;;;24.38;35.05
70730;BME280;58315;53.336;55.932;2022-09-02T02:54:20;98866.34;;;24.58;34.96
70730;BME280;58315;53.336;55.932;2022-09-02T02:56:47;98860.56;;;24.71;34.44
70730;BME280;58315;53.336;55.932;2022-09-02T02:59:13;98866.28;;;24.92;34.58
70730;BME280;58315;53.336;55.932;2022-09-02T03:01:39;98853.22;;;25.06;34.00
70730;BME280;58315;53.336;55.932;2022-09-02T03:04:06;98868.44;;;25.12;33.72
70730;BME280;58315;53.336;55.932;2022-09-02T03:06:32;98889.34;;;25.38;34.24
70730;BME280;58315;53.336;55.932;2022-09-02T03:09:02;98869.03;;;25.58;33.74
70730;BME280;58315;53.336;55.932;2022-09-02T03:11:29;98869.81;;;25.80;33.54
70730;BME280;58315;53.336;55.932;2022-09-02T03:13:56;98869.31;;;26.10;33.63
70730;BME280;58315;53.336;55.932;2022-09-02T03:16:22;98861.44;;;26.09;32.11
70730;BME280;58315;53.336;55.932;2022-09-02T03:18:50;98867.50;;;26.21;32.12
70730;BME280;58315;53.336;55.932;2022-09-02T03:21:17;98876.03;;;26.40;31.41
70730;BME280;58315;53.336;55.932;2022-09-02T03:23:45;98914.44;;;26.59;31.41
70730;BME280;58315;53.336;55.932;2022-09-02T03:26:17;98928.53;;;26.61;30.71
70730;BME280;58315;53.336;55.932;2022-09-02T03:28:44;98939.97;;;26.68;30.45
70730;BME280;58315;53.336;55.932;2022-09-02T03:31:16;98952.06;;;26.92;29.75
70730;BME280;58315;53.336;55.932;2022-09-02T03:33:43;98943.97;;;26.98;29.84
70730;BME280;58315;53.336;55.932;2022-09-02T03:36:26;98951.25;;;27.29;29.29
70730;BME280;58315;53.336;55.932;2022-09-02T03:38:54;98949.03;;;27.21;29.41
70730;BME280;58315;53.336;55.932;2022-09-02T03:41:21;98945.75;;;27.19;29.45
70730;BME280;58315;53.336;55.932;2022-09-02T03:43:48;98945.81;;;27.29;29.38
70730;BME280;58315;53.336;55.932;2022-09-02T03:46:15;98959.97;;;27.36;28.99
70730;BME280;58315;53.336;55.932;2022-09-02T03:48:41;98951.88;;;27.47;29.07
70730;BME280;58315;53.336;55.932;2022-09-02T03:51:10;98954.22;;;27.80;28.67
70730;BME280;58315;53.336;55.932;2022-09-02T03:53:37;98948.31;;;28.19;28.71
70730;BME280;58315;53.336;55.932;2022-09-02T03:56:09;98959.81;;;28.82;28.41
70730;BME280;58315;53.336;55.932;2022-09-02T03:58:43;98956.25;;;29.13;28.00
70730;BME280;58315;53.336;55.932;2022-09-02T04:01:15;98959.59;;;29.79;26.58
70730;BME280;58315;53.336;55.932;2022-09-02T04:03:42;98958.78;;;29.79;27.30
70730;BME280;58315;53.336;55.932;2022-09-02T04:06:11;98964.34;;;29.59;27.14
70730;BME280;58315;53.336;55.932;2022-09-02T04:08:41;98957.56;;;29.41;27.38
70730;BME280;58315;53.336;55.932;2022-09-02T04:11:10;98962.47;;;29.44;27.17
70730;BME280;58315;53.336;55.932;2022-09-02T04:13:38;98974.94;;;29.50;27.65
70730;BME280;58315;53.336;55.932;2022-09-02T04:16:09;98966.88;;;30.44;27.14
70730;BME280;58315;53.336;55.932;2022-09-02T04:18:36;98968.94;;;31.50;26.35
70730;BME280;58315;53.336;55.932;2022-09-02T04:21:02;98972.94;;;31.81;26.03
70730;BME280;58315;53.336;55.932;2022-09-02T04:23:29;98968.84;;;32.22;25.16
70730;BME280;58315;53.336;55.932;2022-09-02T04:25:55;98979.03;;;32.73;24.87
70730;BME280;58315;53.336;55.932;2022-09-02T04:28:22;98979.38;;;33.31;23.61
70730;BME280;58315;53.336;55.932;2022-09-02T04:30:48;98975.69;;;32.95;23.03
70730;BME280;58315;53.336;55.932;2022-09-02T04:33:15;98974.31;;;32.59;22.98
70730;BME280;58315;53.336;55.932;2022-09-02T04:35:44;98982.13;;;32.28;23.02
70730;BME280;58315;53.336;55.932;2022-09-02T04:38:14;98965.31;;;31.78;23.06
70730;BME280;58315;53.336;55.932;2022-09-02T04:40:44;98976.38;;;31.44;24.61
70730;BME280;58315;53.336;55.932;2022-09-02T04:43:11;98955.56;;;31.48;24.63
70730;BME280;58315;53.336;55.932;2022-09-02T04:45:39;98974.38;;;31.98;25.04
70730;BME280;58315;53.336;55.932;2022-09-02T04:48:06;98975.16;;;32.41;24.23
70730;BME280;58315;53.336;55.932;2022-09-02T04:50:33;98992.66;;;32.59;24.07
70730;BME280;58315;53.336;55.932;2022-09-02T04:53:00;98989.47;;;32.52;24.06
70730;BME280;58315;53.336;55.932;2022-09-02T04:55:29;99003.56;;;32.40;24.76
70730;BME280;58315;53.336;55.932;2022-09-02T04:57:57;98989.97;;;32.54;24.74
70730;BME280;58315;53.336;55.932;2022-09-02T05:00:24;99000.47;;;32.65;22.54
70730;BME280;58315;53.336;55.932;2022-09-02T05:02:54;99010.28;;;32.67;22.13
70730;BME280;58315;53.336;55.932;2022-09-02T05:05:22;99017.31;;;32.35;22.96
70730;BME280;58315;53.336;55.932;2022-09-02T05:07:49;98984.63;;;32.25;22.54
70730;BME280;58315;53.336;55.932;2022-09-02T05:10:16;98987.91;;;32.27;22.78
70730;BME280;58315;53.336;55.932;2022-09-02T05:12:43;98989.38;;;32.38;22.65
70730;BME280;58315;53.336;55.932;2022-09-02T05:15:10;99000.16;;;32.67;22.46
70730;BME280;58315;53.336;55.932;2022-09-02T05:17:37;98994.50;;;33.43;21.89
70730;BME280;58315;53.336;55.932;2022-09-02T05:20:06;99013.69;;;33.70;21.60
70730;BME280;58315;53.336;55.932;2022-09-02T05:22:34;99003.25;;;33.86;20.77
70730;BME280;58315;53.336;55.932;2022-09-02T05:25:04;99009.44;;;33.50;21.65
70730;BME280;58315;53.336;55.932;2022-09-02T05:27:30;99022.94;;;33.60;21.10
70730;BME280;58315;53.336;55.932;2022-09-02T05:29:58;99041.25;;;35.01;21.49
70730;BME280;58315;53.336;55.932;2022-09-02T05:32:25;99056.75;;;35.51;20.27
70730;BME280;58315;53.336;55.932;2022-09-02T05:34:54;99071.25;;;34.62;20.27
70730;BME280;58315;53.336;55.932;2022-09-02T05:37:21;99065.38;;;34.04;21.23
70730;BME280;58315;53.336;55.932;2022-09-02T05:39:47;99038.25;;;33.62;21.28
70730;BME280;58315;53.336;55.932;2022-09-02T05:42:15;99061.50;;;33.31;21.60
70730;BME280;58315;53.336;55.932;2022-09-02T05:44:43;99061.78;;;32.97;22.03
70730;BME280;58315;53.336;55.932;2022-09-02T05:47:10;99069.03;;;32.88;22.51
70730;BME280;58315;53.336;55.932;2022-09-02T05:49:37;99075.78;;;32.77;22.46
70730;BME280;58315;53.336;55.932;2022-09-02T05:52:08;99083.47;;;32.75;22.64
70730;BME280;58315;53.336;55.932;2022-09-02T05:54:40;99089.38;;;32.44;23.04
70730;BME280;58315;53.336;55.932;2022-09-02T05:57:14;99088.94;;;32.32;23.59
70730;BME280;58315;53.336;55.932;2022-09-02T05:59:52;99097.16;;;31.84;24.01
70730;BME280;58315;53.336;55.932;2022-09-02T06:02:24;99097.03;;;31.41;24.20
70730;BME280;58315;53.336;55.932;2022-09-02T06:04:52;99099.97;;;31.15;24.58
70730;BME280;58315;53.336;55.932;2022-09-02T06:07:22;99109.22;;;31.19;25.13
70730;BME280;58315;53.336;55.932;2022-09-02T06:09:50;99121.47;;;31.22;24.97
70730;BME280;58315;53.336;55.932;2022-09-02T06:12:19;99136.53;;;31.14;25.53
70730;BME280;58315;53.336;55.932;2022-09-02T06:14:47;99129.28;;;31.05;25.68
70730;BME280;58315;53.336;55.932;2022-09-02T06:17:14;99141.44;;;31.17;25.58
70730;BME280;58315;53.336;55.932;2022-09-02T06:19:51;99142.16;;;31.28;26.00
70730;BME280;58315;53.336;55.932;2022-09-02T06:22:17;99145.84;;;31.48;26.22
70730;BME280;58315;53.336;55.932;2022-09-02T06:24:45;99140.16;;;31.44;26.20
70730;BME280;58315;53.336;55.932;2022-09-02T06:27:17;99130.25;;;31.53;26.38
70730;BME280;58315;53.336;55.932;2022-09-02T06:29:46;99111.09;;;31.87;26.26
70730;BME280;58315;53.336;55.932;2022-09-02T06:32:17;99099.50;;;32.20;25.81
70730;BME280;58315;53.336;55.932;2022-09-02T06:34:44;99099.88;;;32.56;25.19
70730;BME280;58315;53.336;55.932;2022-09-02T06:37:10;99110.91;;;32.70;25.17
70730;BME280;58315;53.336;55.932;2022-09-02T06:39:39;99101.88;;;32.26;25.25
70730;BME280;58315;53.336;55.932;2022-09-02T06:42:10;99094.31;;;32.42;25.50
70730;BME280;58315;53.336;55.932;2022-09-02T06:44:44;99084.13;;;32.67;25.76
70730;BME280;58315;53.336;55.932;2022-09-02T06:47:10;99086.84;;;32.85;25.44
70730;BME280;58315;53.336;55.932;2022-09-02T06:49:36;99081.25;;;32.96;25.60
70730;BME280;58315;53.336;55.932;2022-09-02T06:52:05;99082.34;;;33.13;25.32
70730;BME280;58315;53.336;55.932;2022-09-02T06:54:35;99084.13;;;33.04;25.34
70730;BME280;58315;53.336;55.932;2022-09-02T06:57:09;99088.19;;;33.07;25.22
70730;BME280;58315;53.336;55.932;2022-09-02T06:59:36;99082.50;;;33.03;25.45
70730;BME280;58315;53.336;55.932;2022-09-02T07:02:03;99081.59;;;32.89;25.50
70730;BME280;58315;53.336;55.932;2022-09-02T07:04:42;99084.59;;;32.74;25.49
70730;BME280;58315;53.336;55.932;2022-09-02T07:07:26;99085.47;;;32.88;26.04
70730;BME280;58315;53.336;55.932;2022-09-02T07:09:59;99082.41;;;32.89;25.91
70730;BME280;58315;53.336;55.932;2022-09-02T07:12:26;99090.13;;;33.06;25.74
70730;BME280;58315;53.336;55.932;2022-09-02T07:14:57;99083.44;;;33.12;25.84
70730;BME280;58315;53.336;55.932;2022-09-02T07:17:30;99094.25;;;32.85;25.90
70730;BME280;58315;53.336;55.932;2022-09-02T07:20:10;99090.28;;;32.77;26.30
70730;BME280;58315;53.336;55.932;2022-09-02T07:22:47;99105.78;;;32.82;26.10
70730;BME280;58315;53.336;55.932;2022-09-02T07:25:16;99099.88;;;32.75;25.94
70730;BME280;58315;53.336;55.932;2022-09-02T07:27:43;99090.63;;;32.71;26.09
70730;BME280;58315;53.336;55.932;2022-09-02T07:30:11;99092.19;;;32.77;25.98
70730;BME280;58315;53.336;55.932;2022-09-02T07:32:39;99097.59;;;32.82;26.18
70730;BME280;58315;53.336;55.932;2022-09-02T07:35:07;99105.69;;;32.87;26.39
70730;BME280;58315;53.336;55.932;2022-09-02T07:37:34;99106.69;;;32.96;26.47
70730;BME280;58315;53.336;55.932;2022-09-02T07:40:06;99111.41;;;33.09;26.25
70730;BME280;58315;53.336;55.932;2022-09-02T07:42:33;99113.22;;;33.33;26.43
70730;BME280;58315;53.336;55.932;2022-09-02T07:44:59;99108.00;;;33.18;26.75
70730;BME280;58315;53.336;55.932;2022-09-02T07:47:26;99102.84;;;33.30;26.44
70730;BME280;58315;53.336;55.932;2022-09-02T07:49:52;99113.38;;;33.23;26.51
70730;BME280;58315;53.336;55.932;2022-09-02T07:52:19;99114.50;;;33.22;26.56
70730;BME280;58315;53.336;55.932;2022-09-02T07:54:45;99122.81;;;33.30;27.16
70730;BME280;58315;53.336;55.932;2022-09-02T07:57:11;99112.94;;;33.16;27.37
70730;BME280;58315;53.336;55.932;2022-09-02T07:59:37;99109.06;;;33.03;27.67
70730;BME280;58315;53.336;55.932;2022-09-02T08:02:04;99111.84;;;33.17;27.55
70730;BME280;58315;53.336;55.932;2022-09-02T08:04:30;99115.41;;;33.17;27.82
70730;BME280;58315;53.336;55.932;2022-09-02T08:06:56;99114.66;;;32.93;28.22
70730;BME280;58315;53.336;55.932;2022-09-02T08:09:22;99110.09;;;32.88;28.31
70730;BME280;58315;53.336;55.932;2022-09-02T08:11:49;99117.69;;;32.91;28.30
70730;BME280;58315;53.336;55.932;2022-09-02T08:14:19;99120.59;;;33.00;28.45
70730;BME280;58315;53.336;55.932;2022-09-02T08:16:46;99117.41;;;33.11;28.38
70730;BME280;58315;53.336;55.932;2022-09-02T08:19:13;99114.03;;;33.33;28.15
70730;BME280;58315;53.336;55.932;2022-09-02T08:21:39;99117.50;;;33.20;28.62
70730;BME280;58315;53.336;55.932;2022-09-02T08:24:05;99114.91;;;32.96;28.94
70730;BME280;58315;53.336;55.932;2022-09-02T08:26:31;99124.34;;;32.85;29.45
70730;BME280;58315;53.336;55.932;2022-09-02T08:29:06;99123.03;;;33.01;29.45
70730;BME280;58315;53.336;55.932;2022-09-02T08:31:37;99119.69;;;32.85;29.43
70730;BME280;58315;53.336;55.932;2022-09-02T08:34:03;99130.84;;;32.89;29.56
70730;BME280;58315;53.336;55.932;2022-09-02T08:36:29;99127.84;;;33.09;29.92
70730;BME280;58315;53.336;55.932;2022-09-02T08:38:55;99133.06;;;33.25;29.84
70730;BME280;58315;53.336;55.932;2022-09-02T08:41:24;99135.13;;;33.33;29.79
70730;BME280;58315;53.336;55.932;2022-09-02T08:43:56;99136.41;;;33.22;30.01
70730;BME280;58315;53.336;55.932;2022-09-02T08:46:24;99144.75;;;33.11;30.16
70730;BME280;58315;53.336;55.932;2022-09-02T08:48:58;99142.84;;;33.12;29.86
70730;BME280;58315;53.336;55.932;2022-09-02T08:51:34;99156.28;;;32.89;30.41
70730;BME280;58315;53.336;55.932;2022-09-02T08:54:06;99158.16;;;32.94;30.50
70730;BME280;58315;53.336;55.932;2022-09-02T08:56:33;99157.69;;;32.87;30.36
70730;BME280;58315;53.336;55.932;2022-09-02T08:58:59;99161.63;;;32.81;30.65
70730;BME280;58315;53.336;55.932;2022-09-02T09:01:44;99168.72;;;33.01;30.01
70730;BME280;58315;53.336;55.932;2022-09-02T09:17:43;99198.66;;;33.49;29.87
70730;BME280;58315;53.336;55.932;2022-09-02T09:20:18;99186.84;;;33.53;29.79
70730;BME280;58315;53.336;55.932;2022-09-02T09:22:47;99191.91;;;33.41;29.57
70730;BME280;58315;53.336;55.932;2022-09-02T09:25:15;99200.28;;;33.31;29.70
70730;BME280;58315;53.336;55.932;2022-09-02T09:27:42;99203.78;;;33.18;29.83
70730;BME280;58315;53.336;55.932;2022-09-02T09:30:12;99202.09;;;33.03;30.31
70730;BME280;58315;53.336;55.932;2022-09-02T09:33:15;99204.03;;;33.02;30.27
70730;BME280;58315;53.336;55.932;2022-09-02T09:35:49;99213.16;;;32.93;30.33
70730;BME280;58315;53.336;55.932;2022-09-02T09:38:15;99205.13;;;32.58;31.03
70730;BME280;58315;53.336;55.932;2022-09-02T09:41:16;99220.03;;;32.47;31.18
70730;BME280;58315;53.336;55.932;2022-09-02T09:43:43;99230.47;;;32.40;31.37
70730;BME280;58315;53.336;55.932;2022-09-02T09:46:39;99227.88;;;32.54;31.61
70730;BME280;58315;53.336;55.932;2022-09-02T09:49:05;99232.63;;;32.43;31.26
70730;BME280;58315;53.336;55.932;2022-09-02T09:51:31;99233.88;;;32.56;31.71
70730;BME280;58315;53.336;55.932;2022-09-02T09:54:14;99240.94;;;32.81;31.63
70730;BME280;58315;53.336;55.932;2022-09-02T09:56:41;99252.09;;;32.65;31.70
70730;BME280;58315;53.336;55.932;2022-09-02T09:59:08;99243.69;;;32.81;31.24
70730;BME280;58315;53.336;55.932;2022-09-02T10:01:54;99246.22;;;32.72;31.15
70730;BME280;58315;53.336;55.932;2022-09-02T10:04:31;99253.91;;;32.94;31.14
70730;BME280;58315;53.336;55.932;2022-09-02T10:06:58;99250.69;;;32.87;31.05
70730;BME280;58315;53.336;55.932;2022-09-02T10:09:32;99256.41;;;32.90;31.56
70730;BME280;58315;53.336;55.932;2022-09-02T10:12:11;99262.31;;;33.03;31.32
70730;BME280;58315;53.336;55.932;2022-09-02T10:25:36;99255.03;;;33.12;31.84
70730;BME280;58315;53.336;55.932;2022-09-02T10:33:32;99258.16;;;33.05;32.41
70730;BME280;58315;53.336;55.932;2022-09-02T10:38:44;99263.47;;;32.97;32.11
70730;BME280;58315;53.336;55.932;2022-09-02T10:46:25;99268.69;;;32.93;32.61
70730;BME280;58315;53.336;55.932;2022-09-02T10:49:19;99267.38;;;32.67;32.46
70730;BME280;58315;53.336;55.932;2022-09-02T10:57:19;99266.25;;;32.68;32.40
70730;BME280;58315;53.336;55.932;2022-09-02T11:00:04;99280.34;;;32.56;32.90
70730;BME280;58315;53.336;55.932;2022-09-02T11:02:41;99271.91;;;32.52;33.09
70730;BME280;58315;53.336;55.932;2022-09-02T11:05:36;99269.41;;;32.56;32.79
70730;BME280;58315;53.336;55.932;2022-09-02T11:11:06;99275.00;;;32.70;33.04
70730;BME280;58315;53.336;55.932;2022-09-02T11:19:19;99277.25;;;32.86;32.19
70730;BME280;58315;53.336;55.932;2022-09-02T11:22:14;99274.84;;;32.80;32.07
70730;BME280;58315;53.336;55.932;2022-09-02T11:30:20;99283.06;;;32.80;32.35
70730;BME280;58315;53.336;55.932;2022-09-02T11:35:42;99281.00;;;32.96;31.69
70730;BME280;58315;53.336;55.932;2022-09-02T11:38:36;99288.84;;;33.02;31.85
70730;BME280;58315;53.336;55.932;2022-09-02T11:41:24;99289.91;;;33.06;31.69
70730;BME280;58315;53.336;55.932;2022-09-02T11:47:06;99295.66;;;33.24;32.02
70730;BME280;58315;53.336;55.932;2022-09-02T11:50:00;99294.41;;;33.16;31.62
70730;BME280;58315;53.336;55.932;2022-09-02T11:55:19;99289.03;;;33.49;31.58
70730;BME280;58315;53.336;55.932;2022-09-02T11:57:54;99291.06;;;33.38;31.44
70730;BME280;58315;53.336;55.932;2022-09-02T12:00:58;99287.16;;;33.06;31.17
70730;BME280;58315;53.336;55.932;2022-09-02T12:03:26;99300.09;;;32.77;32.01
70730;BME280;58315;53.336;55.932;2022-09-02T12:06:10;99296.75;;;32.56;32.10
70730;BME280;58315;53.336;55.932;2022-09-02T12:11:41;99310.03;;;32.09;32.75
70730;BME280;58315;53.336;55.932;2022-09-02T12:14:11;99316.06;;;32.06;32.62
70730;BME280;58315;53.336;55.932;2022-09-02T12:17:03;99308.81;;;32.26;32.69
70730;BME280;58315;53.336;55.932;2022-09-02T12:19:50;99311.47;;;32.31;32.22
70730;BME280;58315;53.336;55.932;2022-09-02T12:27:32;99322.81;;;32.19;32.60
70730;BME280;58315;53.336;55.932;2022-09-02T12:29:59;99325.13;;;32.02;32.51
70730;BME280;58315;53.336;55.932;2022-09-02T12:40:38;99330.81;;;31.71;33.48
70730;BME280;58315;53.336;55.932;2022-09-02T12:43:18;99319.31;;;31.74;33.22
70730;BME280;58315;53.336;55.932;2022-09-02T12:45:48;99325.84;;;31.78;33.51
70730;BME280;58315;53.336;55.932;2022-09-02T12:48:18;99302.41;;;32.06;32.83
70730;BME280;58315;53.336;55.932;2022-09-02T12:50:52;99296.13;;;32.06;33.02
70730;BME280;58315;53.336;55.932;2022-09-02T12:58:37;99298.28;;;32.38;32.63
70730;BME280;58315;53.336;55.932;2022-09-02T13:24:32;99327.41;;;32.24;32.82
70730;BME280;58315;53.336;55.932;2022-09-02T13:30:06;99320.31;;;31.83;33.32
70730;BME280;58315;53.336;55.932;2022-09-02T13:32:37;99319.38;;;31.64;33.70
70730;BME280;58315;53.336;55.932;2022-09-02T13:35:16;99318.53;;;31.68;34.18
70730;BME280;58315;53.336;55.932;2022-09-02T13:37:43;99322.44;;;31.57;33.95
70730;BME280;58315;53.336;55.932;2022-09-02T13:40:24;99315.22;;;31.27;34.57
70730;BME280;58315;53.336;55.932;2022-09-02T13:42:52;99316.38;;;31.16;34.62
70730;BME280;58315;53.336;55.932;2022-09-02T13:45:21;99314.94;;;31.34;34.62
70730;BME280;58315;53.336;55.932;2022-09-02T13:47:49;99320.66;;;31.32;34.34
70730;BME280;58315;53.336;55.932;2022-09-02T13:50:20;99321.00;;;31.10;34.85
70730;BME280;58315;53.336;55.932;2022-09-02T13:52:50;99328.44;;;30.89;35.08
70730;BME280;58315;53.336;55.932;2022-09-02T13:55:17;99317.03;;;30.82;35.23
70730;BME280;58315;53.336;55.932;2022-09-02T14:00:36;99327.97;;;30.77;35.61
70730;BME280;58315;53.336;55.932;2022-09-02T14:05:36;99320.34;;;30.59;36.03
70730;BME280;58315;53.336;55.932;2022-09-02T14:08:06;99323.38;;;30.47;36.38
70730;BME280;58315;53.336;55.932;2022-09-02T14:10:36;99322.81;;;30.45;36.09
70730;BME280;58315;53.336;55.932;2022-09-02T14:13:07;99334.56;;;30.50;35.87
70730;BME280;58315;53.336;55.932;2022-09-02T14:15:34;99327.75;;;30.43;35.87
70730;BME280;58315;53.336;55.932;2022-09-02T14:18:20;99333.16;;;30.53;36.31
70730;BME280;58315;53.336;55.932;2022-09-02T14:23:30;99329.97;;;30.20;36.30
70730;BME280;58315;53.336;55.932;2022-09-02T14:26:01;99337.28;;;30.04;36.91
70730;BME280;58315;53.336;55.932;2022-09-02T14:28:30;99336.72;;;29.82;37.39
70730;BME280;58315;53.336;55.932;2022-09-02T14:31:01;99327.19;;;29.85;37.18
70730;BME280;58315;53.336;55.932;2022-09-02T14:33:42;99336.41;;;29.68;37.67
70730;BME280;58315;53.336;55.932;2022-09-02T14:43:46;99345.41;;;29.59;37.96
70730;BME280;58315;53.336;55.932;2022-09-02T14:46:37;99338.34;;;29.78;37.62
70730;BME280;58315;53.336;55.932;2022-09-02T14:51:44;99348.69;;;29.71;37.70
70730;BME280;58315;53.336;55.932;2022-09-02T14:54:11;99349.75;;;29.60;37.63
70730;BME280;58315;53.336;55.932;2022-09-02T14:56:49;99342.91;;;29.57;38.16
70730;BME280;58315;53.336;55.932;2022-09-02T14:59:16;99353.19;;;29.29;38.48
70730;BME280;58315;53.336;55.932;2022-09-02T15:01:44;99353.97;;;29.25;38.39
70730;BME280;58315;53.336;55.932;2022-09-02T15:04:12;99357.53;;;29.30;38.36
70730;BME280;58315;53.336;55.932;2022-09-02T15:06:39;99360.00;;;29.37;38.53
70730;BME280;58315;53.336;55.932;2022-09-02T15:09:05;99356.47;;;29.42;38.44
70730;BME280;58315;53.336;55.932;2022-09-02T15:11:31;99355.63;;;29.31;38.57
70730;BME280;58315;53.336;55.932;2022-09-02T15:14:00;99360.25;;;29.36;38.80
70730;BME280;58315;53.336;55.932;2022-09-02T15:16:27;99349.94;;;29.38;38.15
70730;BME280;58315;53.336;55.932;2022-09-02T15:18:54;99359.19;;;29.37;38.79